sensor_id;sensor_type;location;lat;lon;timestamp;pressure;altitude;pressure_sealevel;temperature;humidity
30614;BME280;17381;51.690;5.270;2023-04-15T00:41:31;100770.97;;;9.85;56.91
30614;BME280;17381;51.690;5.270;2023-04-15T00:45:30;100774.53;;;9.82;57.58
30614;BME280;17381;51.690;5.270;2023-04-15T01:15:45;100772.03;;;9.37;58.64
30614;BME280;17381;51.690;5.270;2023-04-15T01:18:32;100773.81;;;9.36;58.54
30614;BME280;17381;51.690;5.270;2023-04-15T01:21:31;100763.47;;;9.30;58.96
30614;BME280;17381;51.690;5.270;2023-04-15T01:24:26;100775.75;;;9.28;58.72
30614;BME280;17381;51.690;5.270;2023-04-15T01:27:42;100772.34;;;9.23;59.71
30614;BME280;17381;51.690;5.270;2023-04-15T01:30:38;100770.72;;;9.19;58.81
30614;BME280;17381;51.690;5.270;2023-04-15T01:33:25;100766.56;;;9.09;59.63
30614;BME280;17381;51.690;5.270;2023-04-15T01:36:04;100766.50;;;9.10;59.75
30614;BME280;17381;51.690;5.270;2023-04-15T01:39:03;100769.34;;;9.01;59.86
30614;BME280;17381;51.690;5.270;2023-04-15T01:41:30;100764.91;;;9.03;59.63
30614;BME280;17381;51.690;5.270;2023-04-15T01:44:05;100722.72;;;8.73;59.72
30614;BME280;17381;51.690;5.270;2023-04-15T01:47:15;100772.81;;;9.02;60.14
30614;BME280;17381;51.690;5.270;2023-04-15T01:50:19;100773.91;;;8.91;59.89
30614;BME280;17381;51.690;5.270;2023-04-15T01:53:19;100735.03;;;8.70;60.05
30614;BME280;17381;51.690;5.270;2023-04-15T01:56:19;100716.09;;;8.54;60.34
30614;BME280;17381;51.690;5.270;2023-04-15T01:59:19;100765.44;;;8.77;60.88
30614;BME280;17381;51.690;5.270;2023-04-15T02:02:13;100767.25;;;8.73;61.09
30614;BME280;17381;51.690;5.270;2023-04-15T02:05:32;100772.44;;;8.75;60.27
30614;BME280;17381;51.690;5.270;2023-04-15T02:08:28;100778.59;;;8.74;60.49
30614;BME280;17381;51.690;5.270;2023-04-15T02:11:19;100777.81;;;8.69;60.67
30614;BME280;17381;51.690;5.270;2023-04-15T02:14:05;100756.41;;;8.47;60.75
30614;BME280;17381;51.690;5.270;2023-04-15T02:16:54;100784.13;;;8.59;61.03
30614;BME280;17381;51.690;5.270;2023-04-15T02:19:43;100704.78;;;8.05;60.97
30614;BME280;17381;51.690;5.270;2023-04-15T02:22:14;100707.41;;;8.02;61.11
30614;BME280;17381;51.690;5.270;2023-04-15T02:25:10;100794.78;;;8.49;61.26
30614;BME280;17381;51.690;5.270;2023-04-15T02:27:57;100792.25;;;8.43;61.68
30614;BME280;17381;51.690;5.270;2023-04-15T02:30:23;100794.94;;;8.42;61.26
30614;BME280;17381;51.690;5.270;2023-04-15T02:33:23;100801.91;;;8.41;61.40
30614;BME280;17381;51.690;5.270;2023-04-15T02:36:12;100801.97;;;8.35;61.82
30614;BME280;17381;51.690;5.270;2023-04-15T02:38:38;100795.94;;;8.32;62.62
30614;BME280;17381;51.690;5.270;2023-04-15T02:41:24;100804.66;;;8.30;61.93
30614;BME280;17381;51.690;5.270;2023-04-15T02:44:05;100804.72;;;8.27;62.38
30614;BME280;17381;51.690;5.270;2023-04-15T02:46:53;100814.34;;;8.27;62.22
30614;BME280;17381;51.690;5.270;2023-04-15T02:49:55;100809.22;;;8.19;62.85
30614;BME280;17381;51.690;5.270;2023-04-15T02:53:04;100810.25;;;8.11;62.70
30614;BME280;17381;51.690;5.270;2023-04-15T02:55:57;100812.09;;;8.05;62.74
30614;BME280;17381;51.690;5.270;2023-04-15T02:58:54;100816.53;;;7.99;63.41
30614;BME280;17381;51.690;5.270;2023-04-15T03:02:01;100814.03;;;7.91;63.32
30614;BME280;17381;51.690;5.270;2023-04-15T03:05:13;100822.84;;;7.85;63.93
30614;BME280;17381;51.690;5.270;2023-04-15T03:08:11;100809.09;;;7.71;64.22
30614;BME280;17381;51.690;5.270;2023-04-15T03:11:11;100811.72;;;7.73;64.13
30614;BME280;17381;51.690;5.270;2023-04-15T03:14:14;100818.81;;;7.64;64.54
30614;BME280;17381;51.690;5.270;2023-04-15T03:17:29;100817.94;;;7.62;64.40
30614;BME280;17381;51.690;5.270;2023-04-15T03:20:25;100820.63;;;7.59;64.96
30614;BME280;17381;51.690;5.270;2023-04-15T03:23:37;100812.94;;;7.47;65.31
30614;BME280;17381;51.690;5.270;2023-04-15T03:26:45;100779.25;;;7.22;65.00
30614;BME280;17381;51.690;5.270;2023-04-15T03:29:45;100825.97;;;7.50;65.25
30614;BME280;17381;51.690;5.270;2023-04-15T03:32:44;100833.03;;;7.43;65.53
30614;BME280;17381;51.690;5.270;2023-04-15T03:35:37;100839.13;;;7.44;65.54
30614;BME280;17381;51.690;5.270;2023-04-15T03:38:33;100804.69;;;7.13;65.52
30614;BME280;17381;51.690;5.270;2023-04-15T03:41:26;100842.69;;;7.38;65.45
30614;BME280;17381;51.690;5.270;2023-04-15T03:44:13;100846.22;;;7.33;66.03
30614;BME280;17381;51.690;5.270;2023-04-15T03:47:07;100846.28;;;7.30;65.83
30614;BME280;17381;51.690;5.270;2023-04-15T03:50:03;100847.22;;;7.26;65.83
30614;BME280;17381;51.690;5.270;2023-04-15T03:52:58;100817.03;;;6.98;66.14
30614;BME280;17381;51.690;5.270;2023-04-15T03:56:03;100830.91;;;7.05;66.35
30614;BME280;17381;51.690;5.270;2023-04-15T03:58:56;100856.84;;;7.19;66.57
30614;BME280;17381;51.690;5.270;2023-04-15T04:01:54;100875.16;;;7.20;66.59
30614;BME280;17381;51.690;5.270;2023-04-15T04:04:42;100870.84;;;7.15;66.77
30614;BME280;17381;51.690;5.270;2023-04-15T04:07:56;100869.19;;;7.08;66.76
30614;BME280;17381;51.690;5.270;2023-04-15T04:10:42;100885.78;;;7.05;67.45
30614;BME280;17381;51.690;5.270;2023-04-15T04:13:36;100890.16;;;7.03;67.30
30614;BME280;17381;51.690;5.270;2023-04-15T04:16:37;100896.22;;;7.02;67.35
30614;BME280;17381;51.690;5.270;2023-04-15T04:19:32;100898.84;;;7.02;67.28
30614;BME280;17381;51.690;5.270;2023-04-15T04:22:27;100908.47;;;7.00;67.48
30614;BME280;17381;51.690;5.270;2023-04-15T04:25:26;100896.38;;;6.88;67.89
30614;BME280;17381;51.690;5.270;2023-04-15T04:28:20;100909.44;;;6.90;67.64
30614;BME280;17381;51.690;5.270;2023-04-15T04:31:12;100903.44;;;6.82;67.87
30614;BME280;17381;51.690;5.270;2023-04-15T04:34:15;100875.78;;;6.58;68.13
30614;BME280;17381;51.690;5.270;2023-04-15T04:37:12;100922.53;;;6.85;68.16
30614;BME280;17381;51.690;5.270;2023-04-15T04:40:11;100927.81;;;6.82;68.16
30614;BME280;17381;51.690;5.270;2023-04-15T04:43:15;100930.47;;;6.73;68.52
30614;BME280;17381;51.690;5.270;2023-04-15T04:46:22;100930.50;;;6.71;68.80
30614;BME280;17381;51.690;5.270;2023-04-15T04:49:18;100931.38;;;6.70;68.72
30614;BME280;17381;51.690;5.270;2023-04-15T04:52:15;100908.03;;;6.50;68.56
30614;BME280;17381;51.690;5.270;2023-04-15T04:55:11;100941.84;;;6.69;69.02
30614;BME280;17381;51.690;5.270;2023-04-15T04:58:04;100917.63;;;6.50;69.09
30614;BME280;17381;51.690;5.270;2023-04-15T05:01:03;100951.44;;;6.67;68.96
30614;BME280;17381;51.690;5.270;2023-04-15T05:04:08;100954.06;;;6.65;69.47
30614;BME280;17381;51.690;5.270;2023-04-15T05:07:01;100954.09;;;6.64;69.57
30614;BME280;17381;51.690;5.270;2023-04-15T05:09:56;100954.97;;;6.60;69.67
30614;BME280;17381;51.690;5.270;2023-04-15T05:13:04;100944.59;;;6.52;69.75
30614;BME280;17381;51.690;5.270;2023-04-15T05:16:16;100978.41;;;6.67;70.05
30614;BME280;17381;51.690;5.270;2023-04-15T05:19:15;100978.44;;;6.64;70.11
30614;BME280;17381;51.690;5.270;2023-04-15T05:22:13;100993.16;;;6.73;70.12
30614;BME280;17381;51.690;5.270;2023-04-15T05:25:15;100992.31;;;6.72;70.15
30614;BME280;17381;51.690;5.270;2023-04-15T05:28:30;100970.63;;;6.60;70.14
30614;BME280;17381;51.690;5.270;2023-04-15T05:31:30;100981.91;;;6.63;70.18
30614;BME280;17381;51.690;5.270;2023-04-15T05:34:26;101007.13;;;6.72;70.34
30614;BME280;17381;51.690;5.270;2023-04-15T05:37:31;100993.22;;;6.65;70.41
30614;BME280;17381;51.690;5.270;2023-04-15T05:40:33;101008.88;;;6.71;70.61
30614;BME280;17381;51.690;5.270;2023-04-15T05:43:39;100988.09;;;6.56;70.49
30614;BME280;17381;51.690;5.270;2023-04-15T05:46:32;101023.63;;;6.75;70.70
30614;BME280;17381;51.690;5.270;2023-04-15T05:49:28;101031.47;;;6.77;70.71
30614;BME280;17381;51.690;5.270;2023-04-15T05:52:15;101025.38;;;6.75;70.84
30614;BME280;17381;51.690;5.270;2023-04-15T05:55:13;101000.25;;;6.55;70.83
30614;BME280;17381;51.690;5.270;2023-04-15T05:58:03;101050.63;;;6.74;71.02
30614;BME280;17381;51.690;5.270;2023-04-15T06:01:09;101042.78;;;6.74;70.85
30614;BME280;17381;51.690;5.270;2023-04-15T06:04:12;101069.72;;;6.81;71.24
30614;BME280;17381;51.690;5.270;2023-04-15T06:07:12;101067.13;;;6.83;71.16
30614;BME280;17381;51.690;5.270;2023-04-15T06:10:48;101061.91;;;6.80;71.74
30614;BME280;17381;51.690;5.270;2023-04-15T06:13:59;101000.34;;;6.43;71.69
30614;BME280;17381;51.690;5.270;2023-04-15T06:17:04;101034.16;;;6.66;71.34
30614;BME280;17381;51.690;5.270;2023-04-15T06:20:06;101076.59;;;6.96;71.74
30614;BME280;17381;51.690;5.270;2023-04-15T06:23:10;101043.66;;;6.75;72.25
30614;BME280;17381;51.690;5.270;2023-04-15T06:26:14;101079.19;;;6.99;71.94
30614;BME280;17381;51.690;5.270;2023-04-15T06:29:29;101069.69;;;6.90;72.06
30614;BME280;17381;51.690;5.270;2023-04-15T06:32:55;101095.63;;;7.15;72.20
30614;BME280;17381;51.690;5.270;2023-04-15T06:36:03;101100.78;;;7.22;72.26
30614;BME280;17381;51.690;5.270;2023-04-15T06:38:59;101108.59;;;7.29;72.07
30614;BME280;17381;51.690;5.270;2023-04-15T06:41:55;101092.91;;;7.29;72.55
30614;BME280;17381;51.690;5.270;2023-04-15T06:45:07;101118.91;;;7.46;72.49
30614;BME280;17381;51.690;5.270;2023-04-15T06:48:09;101125.81;;;7.53;72.54
30614;BME280;17381;51.690;5.270;2023-04-15T06:51:18;101102.38;;;7.43;72.49
30614;BME280;17381;51.690;5.270;2023-04-15T06:54:24;101133.50;;;7.73;72.65
30614;BME280;17381;51.690;5.270;2023-04-15T06:57:29;101138.63;;;7.83;72.21
30614;BME280;17381;51.690;5.270;2023-04-15T07:03:32;101146.25;;;8.05;72.75
30614;BME280;17381;51.690;5.270;2023-04-15T07:09:35;101149.56;;;8.22;72.24
30614;BME280;17381;51.690;5.270;2023-04-15T07:12:33;101150.28;;;8.34;72.57
30614;BME280;17381;51.690;5.270;2023-04-15T07:15:17;101152.91;;;8.35;72.03
30614;BME280;17381;51.690;5.270;2023-04-15T07:17:51;101159.72;;;8.51;71.78
30614;BME280;17381;51.690;5.270;2023-04-15T07:20:45;101163.94;;;8.62;71.91
30614;BME280;17381;51.690;5.270;2023-04-15T07:23:26;101171.75;;;8.68;71.22
30614;BME280;17381;51.690;5.270;2023-04-15T07:26:10;101135.22;;;8.56;71.01
30614;BME280;17381;51.690;5.270;2023-04-15T07:28:36;101167.22;;;8.81;71.12
30614;BME280;17381;51.690;5.270;2023-04-15T07:31:09;101176.75;;;8.86;71.08
30614;BME280;17381;51.690;5.270;2023-04-15T07:33:57;101184.47;;;8.95;70.95
30614;BME280;17381;51.690;5.270;2023-04-15T07:37:03;101187.03;;;9.02;70.91
30614;BME280;17381;51.690;5.270;2023-04-15T07:40:04;101194.75;;;9.12;70.50
30614;BME280;17381;51.690;5.270;2023-04-15T07:43:10;101179.94;;;9.08;70.41
30614;BME280;17381;51.690;5.270;2023-04-15T07:46:11;101208.53;;;9.27;70.40
30614;BME280;17381;51.690;5.270;2023-04-15T07:49:11;101211.06;;;9.31;70.55
30614;BME280;17381;51.690;5.270;2023-04-15T07:52:14;101224.13;;;9.37;70.40
30614;BME280;17381;51.690;5.270;2023-04-15T07:55:13;101221.28;;;9.50;70.42
30614;BME280;17381;51.690;5.270;2023-04-15T07:58:12;101233.44;;;9.57;70.54
30614;BME280;17381;51.690;5.270;2023-04-15T08:01:04;101222.75;;;9.68;70.31
30614;BME280;17381;51.690;5.270;2023-04-15T08:04:19;101240.03;;;9.82;70.17
30614;BME280;17381;51.690;5.270;2023-04-15T08:07:08;101238.13;;;9.91;69.77
30614;BME280;17381;51.690;5.270;2023-04-15T08:09:58;101235.31;;;10.01;69.79
30614;BME280;17381;51.690;5.270;2023-04-15T08:12:35;101242.13;;;10.13;69.54
30614;BME280;17381;51.690;5.270;2023-04-15T08:15:29;101247.28;;;10.19;68.89
30614;BME280;17381;51.690;5.270;2023-04-15T08:18:15;101260.28;;;10.29;68.78
30614;BME280;17381;51.690;5.270;2023-04-15T08:21:03;101263.63;;;10.38;68.42
30614;BME280;17381;51.690;5.270;2023-04-15T08:24:01;101270.50;;;10.45;67.99
30614;BME280;17381;51.690;5.270;2023-04-15T08:26:48;101273.75;;;10.58;67.33
30614;BME280;17381;51.690;5.270;2023-04-15T08:29:43;101274.50;;;10.65;66.49
30614;BME280;17381;51.690;5.270;2023-04-15T08:32:44;101276.94;;;10.76;65.80
30614;BME280;17381;51.690;5.270;2023-04-15T08:35:34;101281.19;;;10.83;65.99
30614;BME280;17381;51.690;5.270;2023-04-15T08:38:19;101288.06;;;10.90;66.13
30614;BME280;17381;51.690;5.270;2023-04-15T08:41:28;101288.59;;;11.06;64.95
30614;BME280;17381;51.690;5.270;2023-04-15T08:44:24;101294.44;;;11.20;65.07
30614;BME280;17381;51.690;5.270;2023-04-15T08:47:30;101292.81;;;11.53;64.05
30614;BME280;17381;51.690;5.270;2023-04-15T08:53:36;101261.91;;;12.99;56.76
30614;BME280;17381;51.690;5.270;2023-04-15T08:56:30;101309.69;;;13.79;54.55
30614;BME280;17381;51.690;5.270;2023-04-15T08:59:27;101306.03;;;14.36;52.27
30614;BME280;17381;51.690;5.270;2023-04-15T09:02:20;101313.97;;;14.88;51.66
30614;BME280;17381;51.690;5.270;2023-04-15T09:05:13;101296.31;;;15.12;50.40
30614;BME280;17381;51.690;5.270;2023-04-15T09:08:09;101322.28;;;15.49;48.50
30614;BME280;17381;51.690;5.270;2023-04-15T09:11:13;101322.31;;;15.71;48.66
30614;BME280;17381;51.690;5.270;2023-04-15T09:13:40;101329.97;;;16.01;48.94
30614;BME280;17381;51.690;5.270;2023-04-15T09:17:01;101295.91;;;16.12;47.71
30614;BME280;17381;51.690;5.270;2023-04-15T09:20:32;101339.09;;;16.58;47.48
30614;BME280;17381;51.690;5.270;2023-04-15T09:22:55;101300.31;;;16.54;47.67
30614;BME280;17381;51.690;5.270;2023-04-15T09:25:59;101327.94;;;16.91;45.03
30614;BME280;17381;51.690;5.270;2023-04-15T09:28:46;101351.38;;;17.02;44.52
30614;BME280;17381;51.690;5.270;2023-04-15T09:31:50;101323.69;;;17.07;45.55
30614;BME280;17381;51.690;5.270;2023-04-15T09:34:36;101357.88;;;17.34;45.41
30614;BME280;17381;51.690;5.270;2023-04-15T09:37:08;101361.97;;;17.22;44.82
30614;BME280;17381;51.690;5.270;2023-04-15T09:39:59;101312.00;;;16.91;45.12
30614;BME280;17381;51.690;5.270;2023-04-15T09:43:14;101362.94;;;17.40;43.23
30614;BME280;17381;51.690;5.270;2023-04-15T09:46:08;101370.41;;;17.70;44.85
30614;BME280;17381;51.690;5.270;2023-04-15T09:49:14;101356.88;;;17.55;42.64
30614;BME280;17381;51.690;5.270;2023-04-15T09:53:07;101363.50;;;17.28;43.38
30614;BME280;17381;51.690;5.270;2023-04-15T09:55:40;101349.56;;;17.22;43.56
30614;BME280;17381;51.690;5.270;2023-04-15T09:58:55;101365.09;;;17.11;44.00
30614;BME280;17381;51.690;5.270;2023-04-15T10:02:12;101370.53;;;17.29;43.21
30614;BME280;17381;51.690;5.270;2023-04-15T10:04:59;101374.56;;;17.56;43.69
30614;BME280;17381;51.690;5.270;2023-04-15T10:07:41;101369.09;;;17.78;43.59
30614;BME280;17381;51.690;5.270;2023-04-15T10:10:31;101370.84;;;17.98;41.62
30614;BME280;17381;51.690;5.270;2023-04-15T10:13:50;101388.03;;;18.27;40.84
30614;BME280;17381;51.690;5.270;2023-04-15T10:16:51;101370.16;;;18.48;40.70
30614;BME280;17381;51.690;5.270;2023-04-15T10:19:49;101383.78;;;18.60;40.06
30614;BME280;17381;51.690;5.270;2023-04-15T10:22:17;101375.63;;;18.45;40.50
30614;BME280;17381;51.690;5.270;2023-04-15T10:24:55;101350.09;;;18.24;40.65
30614;BME280;17381;51.690;5.270;2023-04-15T10:27:54;101383.72;;;18.61;41.16
30614;BME280;17381;51.690;5.270;2023-04-15T10:30:29;101398.00;;;18.78;41.98
30614;BME280;17381;51.690;5.270;2023-04-15T10:33:03;101388.44;;;18.91;42.10
30614;BME280;17381;51.690;5.270;2023-04-15T10:35:57;101356.25;;;18.78;41.28
30614;BME280;17381;51.690;5.270;2023-04-15T10:41:23;101405.88;;;19.14;40.08
30614;BME280;17381;51.690;5.270;2023-04-15T10:44:19;101391.69;;;19.47;39.48
30614;BME280;17381;51.690;5.270;2023-04-15T10:50:21;101406.56;;;20.00;37.82
30614;BME280;17381;51.690;5.270;2023-04-15T10:53:05;101373.25;;;19.91;37.86
30614;BME280;17381;51.690;5.270;2023-04-15T10:56:01;101412.22;;;20.25;37.64
30614;BME280;17381;51.690;5.270;2023-04-15T10:59:21;101379.31;;;20.41;35.65
30614;BME280;17381;51.690;5.270;2023-04-15T11:02:47;101406.19;;;20.84;37.01
30614;BME280;17381;51.690;5.270;2023-04-15T11:05:59;101406.31;;;21.11;35.92
30614;BME280;17381;51.690;5.270;2023-04-15T11:09:07;101403.09;;;21.34;35.71
30614;BME280;17381;51.690;5.270;2023-04-15T11:12:20;101414.69;;;21.64;35.27
30614;BME280;17381;51.690;5.270;2023-04-15T11:14:59;101418.78;;;21.69;35.08
30614;BME280;17381;51.690;5.270;2023-04-15T11:17:33;101421.19;;;21.74;34.88
30614;BME280;17381;51.690;5.270;2023-04-15T11:20:09;101414.22;;;21.57;36.04
30614;BME280;17381;51.690;5.270;2023-04-15T11:22:57;101417.56;;;21.46;35.96
30614;BME280;17381;51.690;5.270;2023-04-15T11:25:45;101343.19;;;20.65;37.05
30614;BME280;17381;51.690;5.270;2023-04-15T11:28:19;101409.97;;;21.10;36.69
30614;BME280;17381;51.690;5.270;2023-04-15T11:30:48;101421.94;;;21.33;37.75
30614;BME280;17381;51.690;5.270;2023-04-15T11:33:30;101431.56;;;21.35;36.96
30614;BME280;17381;51.690;5.270;2023-04-15T11:36:23;101426.16;;;21.51;36.61
30614;BME280;17381;51.690;5.270;2023-04-15T11:39:06;101432.81;;;21.87;35.47
30614;BME280;17381;51.690;5.270;2023-04-15T11:41:47;101436.50;;;21.99;35.11
30614;BME280;17381;51.690;5.270;2023-04-15T11:44:28;101437.94;;;22.19;35.70
30614;BME280;17381;51.690;5.270;2023-04-15T11:47:24;101387.94;;;22.05;35.59
30614;BME280;17381;51.690;5.270;2023-04-15T11:49:49;101435.97;;;22.62;36.27
30614;BME280;17381;51.690;5.270;2023-04-15T11:52:19;101448.50;;;22.62;35.58
30614;BME280;17381;51.690;5.270;2023-04-15T11:55:15;101445.13;;;22.46;35.46
30614;BME280;17381;51.690;5.270;2023-04-15T11:58:27;101440.53;;;22.20;35.19
30614;BME280;17381;51.690;5.270;2023-04-15T12:01:09;101431.97;;;21.87;36.11
30614;BME280;17381;51.690;5.270;2023-04-15T12:03:57;101460.47;;;21.59;36.01
30614;BME280;17381;51.690;5.270;2023-04-15T12:06:50;101457.69;;;21.46;35.87
30614;BME280;17381;51.690;5.270;2023-04-15T12:09:45;101458.16;;;21.67;36.65
30614;BME280;17381;51.690;5.270;2023-04-15T12:12:58;101463.44;;;21.69;37.86
30614;BME280;17381;51.690;5.270;2023-04-15T12:15:29;101454.53;;;21.40;37.71
30614;BME280;17381;51.690;5.270;2023-04-15T12:17:56;101460.38;;;21.02;38.51
30614;BME280;17381;51.690;5.270;2023-04-15T12:20:34;101420.72;;;20.94;37.80
30614;BME280;17381;51.690;5.270;2023-04-15T12:23:49;101455.13;;;20.54;37.32
30614;BME280;17381;51.690;5.270;2023-04-15T12:26:48;101470.28;;;20.22;38.72
30614;BME280;17381;51.690;5.270;2023-04-15T12:29:47;101476.97;;;19.81;39.23
30614;BME280;17381;51.690;5.270;2023-04-15T12:32:51;101477.97;;;19.28;38.47
30614;BME280;17381;51.690;5.270;2023-04-15T12:35:46;101488.16;;;19.72;40.18
30614;BME280;17381;51.690;5.270;2023-04-15T12:38:41;101487.63;;;19.81;38.36
30614;BME280;17381;51.690;5.270;2023-04-15T12:41:07;101485.16;;;20.42;38.48
30614;BME280;17381;51.690;5.270;2023-04-15T12:43:40;101490.44;;;20.43;37.98
30614;BME280;17381;51.690;5.270;2023-04-15T12:46:27;101495.53;;;20.16;37.80
30614;BME280;17381;51.690;5.270;2023-04-15T12:49:26;101513.84;;;19.91;38.00
30614;BME280;17381;51.690;5.270;2023-04-15T12:52:22;101510.69;;;19.82;39.04
30614;BME280;17381;51.690;5.270;2023-04-15T12:55:18;101520.66;;;20.12;38.12
30614;BME280;17381;51.690;5.270;2023-04-15T12:58:03;101515.75;;;20.52;37.79
30614;BME280;17381;51.690;5.270;2023-04-15T13:00:39;101478.97;;;20.10;37.99
30614;BME280;17381;51.690;5.270;2023-04-15T13:03:42;101539.69;;;20.06;37.42
30614;BME280;17381;51.690;5.270;2023-04-15T13:06:38;101527.03;;;20.10;35.83
30614;BME280;17381;51.690;5.270;2023-04-15T13:09:30;101538.53;;;20.59;37.25
30614;BME280;17381;51.690;5.270;2023-04-15T13:12:04;101536.06;;;21.02;36.38
30614;BME280;17381;51.690;5.270;2023-04-15T13:14:48;101534.34;;;21.62;37.05
30614;BME280;17381;51.690;5.270;2023-04-15T13:20:44;101542.97;;;22.24;34.25
30614;BME280;17381;51.690;5.270;2023-04-15T13:23:51;101530.13;;;22.00;34.24
30614;BME280;17381;51.690;5.270;2023-04-15T13:26:16;101561.88;;;22.07;34.86
30614;BME280;17381;51.690;5.270;2023-04-15T13:36:21;101567.44;;;22.04;33.50
30614;BME280;17381;51.690;5.270;2023-04-15T13:38:50;101563.31;;;21.98;35.35
30614;BME280;17381;51.690;5.270;2023-04-15T13:41:19;101585.53;;;21.25;36.04
30614;BME280;17381;51.690;5.270;2023-04-15T13:43:48;101586.69;;;21.05;35.96
30614;BME280;17381;51.690;5.270;2023-04-15T13:46:26;101587.59;;;21.20;36.17
30614;BME280;17381;51.690;5.270;2023-04-15T14:23:44;101627.75;;;20.88;35.83
30614;BME280;17381;51.690;5.270;2023-04-15T14:26:19;101621.41;;;21.21;35.77
30614;BME280;17381;51.690;5.270;2023-04-15T14:29:04;101637.66;;;21.02;36.87
30614;BME280;17381;51.690;5.270;2023-04-15T14:31:57;101635.66;;;20.90;36.48
30614;BME280;17381;51.690;5.270;2023-04-15T14:34:46;101648.38;;;20.53;36.86
30614;BME280;17381;51.690;5.270;2023-04-15T14:40:10;101644.28;;;20.63;37.48
30614;BME280;17381;51.690;5.270;2023-04-15T14:43:00;101616.50;;;19.83;37.39
30614;BME280;17381;51.690;5.270;2023-04-15T14:45:32;101619.91;;;19.33;38.48
30614;BME280;17381;51.690;5.270;2023-04-15T14:47:58;101651.88;;;19.16;39.10
30614;BME280;17381;51.690;5.270;2023-04-15T14:50:45;101658.19;;;18.77;40.04
30614;BME280;17381;51.690;5.270;2023-04-15T14:53:13;101666.50;;;18.30;40.54
30614;BME280;17381;51.690;5.270;2023-04-15T14:56:32;101676.03;;;18.75;40.66
30614;BME280;17381;51.690;5.270;2023-04-15T14:59:24;101679.91;;;18.87;41.16
30614;BME280;17381;51.690;5.270;2023-04-15T15:01:56;101689.56;;;18.69;41.23
30614;BME280;17381;51.690;5.270;2023-04-15T15:05:12;101688.19;;;18.41;41.58
30614;BME280;17381;51.690;5.270;2023-04-15T15:08:21;101693.91;;;17.91;41.60
30614;BME280;17381;51.690;5.270;2023-04-15T15:11:04;101700.09;;;17.49;42.99
30614;BME280;17381;51.690;5.270;2023-04-15T15:13:36;101698.78;;;17.15;43.43
30614;BME280;17381;51.690;5.270;2023-04-15T15:16:23;101694.41;;;16.91;44.06
30614;BME280;17381;51.690;5.270;2023-04-15T15:19:13;101693.00;;;16.57;44.57
30614;BME280;17381;51.690;5.270;2023-04-15T15:25:37;101710.53;;;16.12;46.01
30614;BME280;17381;51.690;5.270;2023-04-15T15:28:11;101724.47;;;15.92;46.10
30614;BME280;17381;51.690;5.270;2023-04-15T15:31:24;101729.72;;;15.67;46.80
30614;BME280;17381;51.690;5.270;2023-04-15T15:34:37;101727.31;;;15.60;47.09
30614;BME280;17381;51.690;5.270;2023-04-15T15:43:47;101738.91;;;15.27;47.97
30614;BME280;17381;51.690;5.270;2023-04-15T15:47:19;101748.03;;;15.19;48.66
30614;BME280;17381;51.690;5.270;2023-04-15T15:49:55;101755.34;;;15.11;48.54
30614;BME280;17381;51.690;5.270;2023-04-15T15:52:47;101757.69;;;15.20;48.90
30614;BME280;17381;51.690;5.270;2023-04-15T15:55:37;101744.69;;;15.12;48.90
30614;BME280;17381;51.690;5.270;2023-04-15T15:58:18;101762.34;;;15.12;48.70
30614;BME280;17381;51.690;5.270;2023-04-15T16:01:34;101764.81;;;14.88;48.70
30614;BME280;17381;51.690;5.270;2023-04-15T16:04:42;101784.50;;;14.78;48.92
30614;BME280;17381;51.690;5.270;2023-04-15T16:07:42;101794.69;;;14.60;49.36
30614;BME280;17381;51.690;5.270;2023-04-15T16:11:07;101802.81;;;14.54;49.78
30614;BME280;17381;51.690;5.270;2023-04-15T16:13:45;101793.44;;;14.41;50.24
30614;BME280;17381;51.690;5.270;2023-04-15T16:16:16;101795.06;;;14.45;50.26
30614;BME280;17381;51.690;5.270;2023-04-15T16:19:12;101762.38;;;14.48;50.33
30614;BME280;17381;51.690;5.270;2023-04-15T16:22:08;101811.91;;;14.77;50.48
30614;BME280;17381;51.690;5.270;2023-04-15T16:47:57;101852.09;;;13.85;52.04
30614;BME280;17381;51.690;5.270;2023-04-15T16:50:43;101853.94;;;13.82;51.78
30614;BME280;17381;51.690;5.270;2023-04-15T16:57:19;101857.34;;;13.87;51.91
30614;BME280;17381;51.690;5.270;2023-04-15T17:00:24;101867.94;;;13.85;52.24
30614;BME280;17381;51.690;5.270;2023-04-15T17:03:25;101854.22;;;13.68;51.95
30614;BME280;17381;51.690;5.270;2023-04-15T17:06:32;101866.91;;;13.52;52.53
30614;BME280;17381;51.690;5.270;2023-04-15T17:09:20;101874.34;;;13.35;52.71
30614;BME280;17381;51.690;5.270;2023-04-15T19:05:53;101976.38;;;10.76;60.91
30614;BME280;17381;51.690;5.270;2023-04-15T19:09:07;102011.25;;;10.96;61.06
30614;BME280;17381;51.690;5.270;2023-04-15T19:16:28;102017.47;;;10.86;61.34
30614;BME280;17381;51.690;5.270;2023-04-15T19:31:20;102036.81;;;10.80;62.30
30614;BME280;17381;51.690;5.270;2023-04-15T19:49:20;102059.66;;;10.75;62.59
30614;BME280;17381;51.690;5.270;2023-04-15T19:53:00;102062.28;;;10.75;62.79
30614;BME280;17381;51.690;5.270;2023-04-15T20:07:18;102060.63;;;10.57;63.38
30614;BME280;17381;51.690;5.270;2023-04-15T20:10:40;102073.81;;;10.54;63.86
30614;BME280;17381;51.690;5.270;2023-04-15T20:18:09;102072.13;;;10.39;64.24
30614;BME280;17381;51.690;5.270;2023-04-15T20:28:39;102080.06;;;10.22;66.19
30614;BME280;17381;51.690;5.270;2023-04-15T20:39:34;102076.56;;;10.14;66.95
30614;BME280;17381;51.690;5.270;2023-04-15T20:46:20;102081.84;;;10.14;66.62
30614;BME280;17381;51.690;5.270;2023-04-15T20:49:36;102084.47;;;10.13;66.88
30614;BME280;17381;51.690;5.270;2023-04-15T20:53:13;102090.63;;;10.10;67.08
30614;BME280;17381;51.690;5.270;2023-04-15T20:56:29;102057.44;;;9.85;67.99
30614;BME280;17381;51.690;5.270;2023-04-15T21:03:11;102088.03;;;9.93;68.58
30614;BME280;17381;51.690;5.270;2023-04-15T21:06:35;102095.94;;;9.92;68.96
30614;BME280;17381;51.690;5.270;2023-04-15T21:09:38;102097.69;;;9.90;68.80
30614;BME280;17381;51.690;5.270;2023-04-15T21:12:45;102102.09;;;9.81;68.89